Kathy C — 2CTI7 — position and weather

sailwx.info

Track history (hours):
 
Tides and Currents Weather Stations Pressure Air Temp Water Temp Dewpoint Dewpoint Depression Visibility Wind Speed Wind Dir Waves Ship Positions

Kathy C

Last reported at 2015-Apr-21 02:33 UTC. Time now 2015-Apr-21 03:00 UTC.
Position N 54°01' E 007°35'.

Length 106 m; draft 6 m.

Type: Cargo ship. MMSI: 235075591.

Date/timePositionNaut miles runAvg speedWind from/ knotsBaromVisibWave heightAir tempDewpointWater temp
2015-Apr-21 02:33N 54°01' E 007°35'1111.4
2015-Apr-21 01:33N 54°01' E 007°54'1111.0
2015-Apr-21 00:33N 54°00' E 008°13'9 9.5
2015-Apr-20 23:34N 53°59' E 008°28'8 8.0
2015-Apr-20 22:34N 53°55' E 008°41'9 9.2
2015-Apr-20 21:34N 53°51' E 008°54'9 9.0
2015-Apr-20 20:33N 53°54' E 009°09'1 0.8
2015-Apr-20 19:33N 53°54' E 009°10'1 0.9
2015-Apr-20 18:31N 53°55' E 009°11'0 0.0
2015-Apr-20 17:33N 53°55' E 009°11'4 3.9
2015-Apr-20 16:33N 53°58' E 009°15'9 8.5
2015-Apr-20 15:33N 54°06' E 009°20'18 7.8
2015-Apr-20 13:17N 54°18' E 009°42'2 3.2
2015-Apr-20 12:33N 54°20' E 009°44'8 7.6
2015-Apr-20 11:33N 54°20' E 009°57'6 5.7
2015-Apr-20 10:33N 54°22' E 010°06'1 1.5
2015-Apr-20 09:33N 54°22' E 010°09'1 0.7
2015-Apr-20 08:33N 54°22' E 010°10'1 0.7
2015-Apr-20 07:33N 54°22' E 010°10'6 5.8
2015-Apr-20 06:33N 54°27' E 010°14'6 5.7
2015-Apr-20 05:33N 54°31' E 010°22'9 9.0
2015-Apr-20 04:33N 54°35' E 010°36'1211.6
2015-Apr-20 03:31N 54°36' E 010°57'1111.5
2015-Apr-20 02:31N 54°35' E 011°16'1111.8
2015-Apr-20 01:33N 54°30' E 011°34'1211.7
2015-Apr-20 00:33N 54°27' E 011°54'1110.6
2015-Apr-19 23:33N 54°30' E 012°11'1111.1
2015-Apr-19 22:33N 54°39' E 012°21'1211.8
2015-Apr-19 21:33N 54°46' E 012°38'1411.2
2015-Apr-19 20:18N 54°47' E 013°03'811.4
2015-Apr-19 19:33N 54°47' E 013°17'1111.2
2015-Apr-19 18:33N 54°47' E 013°37'1111.1
2015-Apr-19 17:33N 54°43' E 013°55'1111.1
2015-Apr-19 16:33N 54°40' E 014°13'1111.2
2015-Apr-19 15:33N 54°39' E 014°33'1611.5
2015-Apr-19 14:09N 54°41' E 015°00'811.8
2015-Apr-19 13:26N 54°42' E 015°15'10411.6
2015-Apr-19 04:28N 54°57' E 018°13'1011.4
2015-Apr-19 03:33N 54°57' E 018°31'1010.5
2015-Apr-19 02:33N 54°52' E 018°48'1110.5
2015-Apr-19 01:33N 54°44' E 018°60'1111.2
2015-Apr-19 00:33N 54°34' E 018°52'1010.0
2015-Apr-18 23:33N 54°32' E 018°35'1 1.4
2015-Apr-18 22:31N 54°32' E 018°33'0 0.0
2015-Apr-18 21:31N 54°32' E 018°33'0 0.0
2015-Apr-18 20:31N 54°32' E 018°33'0 0.0
2015-Apr-18 19:31N 54°32' E 018°33'0 0.0
2015-Apr-18 18:31N 54°32' E 018°33'0 0.0
2015-Apr-18 17:31N 54°32' E 018°33'0 0.0
2015-Apr-18 16:31N 54°32' E 018°33'0 0.0
2015-Apr-18 15:31N 54°32' E 018°33'0 0.0
2015-Apr-18 14:31N 54°32' E 018°33'0 0.0
2015-Apr-18 13:31N 54°32' E 018°33'0 0.0
2015-Apr-18 12:31N 54°32' E 018°33'0 0.0
2015-Apr-18 11:31N 54°32' E 018°33'0 0.0
2015-Apr-18 10:31N 54°32' E 018°33'0 0.0
2015-Apr-18 09:31N 54°32' E 018°33'0 0.0
2015-Apr-18 08:31N 54°32' E 018°33'0 0.0
2015-Apr-18 07:31N 54°32' E 018°33'0 0.0
2015-Apr-18 06:31N 54°32' E 018°33'0 0.0
2015-Apr-18 05:31N 54°32' E 018°33'0 0.0
2015-Apr-18 04:31N 54°32' E 018°33'0 0.0
2015-Apr-18 03:31N 54°32' E 018°33'0 0.0
2015-Apr-18 02:31N 54°32' E 018°33'0 0.0
2015-Apr-18 01:31N 54°32' E 018°33'0 0.0
2015-Apr-18 00:31N 54°32' E 018°33'0 0.0
2015-Apr-17 23:31N 54°32' E 018°33'0 0.0
2015-Apr-17 22:31N 54°32' E 018°33'0 0.0
2015-Apr-17 21:31N 54°32' E 018°33'0 0.0
2015-Apr-17 20:31N 54°32' E 018°33'5 5.0
2015-Apr-17 19:33N 54°32' E 018°41'1110.8
2015-Apr-17 18:34N 54°39' E 018°55'1110.7
2015-Apr-17 17:34N 54°50' E 018°54'1312.6
2015-Apr-17 16:33N 54°57' E 018°36'1312.5
2015-Apr-17 15:33N 54°57' E 018°14'14812.2
2015-Apr-17 03:21N 54°40' E 013°59'1012.5
2015-Apr-17 02:33N 54°42' E 013°42'1312.8
2015-Apr-17 01:33N 54°44' E 013°20'1312.6
2015-Apr-17 00:32N 54°44' E 012°58'1412.0
2015-Apr-16 23:23N 54°40' E 012°35'1012.5
2015-Apr-16 22:33N 54°35' E 012°19'1212.1
2015-Apr-16 21:33N 54°25' E 012°09'1313.0
2015-Apr-16 20:33N 54°25' E 011°46'1313.0
2015-Apr-16 19:33N 54°30' E 011°26'1313.3
2015-Apr-16 18:33N 54°35' E 011°04'2612.8
2015-Apr-16 16:31N 54°30' E 010°20'1010.6
2015-Apr-16 15:33N 54°22' E 010°09'1 1.1
2015-Apr-16 14:33N 54°22' E 010°08'0 0.0
2015-Apr-16 13:33N 54°22' E 010°08'0 0.3
2015-Apr-16 12:33N 54°22' E 010°07'5 5.2
2015-Apr-16 11:33N 54°21' E 009°59'8 7.7
2015-Apr-16 10:33N 54°21' E 009°45'9 7.4
2015-Apr-16 09:22N 54°14' E 009°36'15 8.0
2015-Apr-16 07:33N 54°03' E 009°19'8 8.3
2015-Apr-16 06:33N 53°56' E 009°13'4 4.4
2015-Apr-16 05:33N 53°53' E 009°07'3 3.0
2015-Apr-16 04:33N 53°52' E 009°02'9 9.3
2015-Apr-16 03:33N 53°50' E 008°47'8 7.8
2015-Apr-16 02:34N 53°57' E 008°39'9 9.3
2015-Apr-16 01:33N 53°59' E 008°23'1410.4
2015-Apr-16 00:12N 53°58' E 007°59'6 9.5
2015-Apr-15 23:34N 53°52' E 007°55'1413.5
2015-Apr-15 22:33N 53°44' E 008°14'1312.7
2015-Apr-15 21:33N 53°36' E 008°30'9 8.9
2015-Apr-15 20:33N 53°27' E 008°30'7 7.1
2015-Apr-15 19:33N 53°20' E 008°30'0 0.0
2015-Apr-15 17:32N 53°20' E 008°30'0 0.0
2015-Apr-15 16:32N 53°20' E 008°30'0 0.0
2015-Apr-15 15:08N 53°20' E 008°30'0 0.0
2015-Apr-15 14:14N 53°20' E 008°30'0 0.0
2015-Apr-15 13:08N 53°20' E 008°30'0 0.0
2015-Apr-15 11:08N 53°20' E 008°30'0 0.0
2015-Apr-15 10:08N 53°20' E 008°30'0 0.0
2015-Apr-15 07:29N 53°20' E 008°30'0 0.0
2015-Apr-15 06:26N 53°20' E 008°30'0 0.0
2015-Apr-15 04:26N 53°20' E 008°30'0 0.0
2015-Apr-15 02:29N 53°20' E 008°30'0 0.0
2015-Apr-15 00:05N 53°20' E 008°30'0 0.0
2015-Apr-14 23:14N 53°20' E 008°30'2 2.9
2015-Apr-14 22:33N 53°22' E 008°30'9 8.8
2015-Apr-14 21:33N 53°31' E 008°32'8 8.3
2015-Apr-14 20:33N 53°38' E 008°26'1111.1
2015-Apr-14 19:33N 53°45' E 008°11'1111.1
2015-Apr-14 18:33N 53°51' E 007°55'1111.0
2015-Apr-14 17:33N 53°54' E 007°37'1212.3
2015-Apr-14 16:32N 53°52' E 007°16'5012.6
2015-Apr-14 12:33N 53°40' E 005°53'1212.2
2015-Apr-14 11:33N 53°36' E 005°34'1211.8
2015-Apr-14 10:33N 53°32' E 005°15'1111.3
2015-Apr-14 09:33N 53°28' E 004°57'2410.2
2015-Apr-14 07:13N 53°10' E 004°32'12211.4
2015-Apr-13 20:33N 51°36' E 002°24'1312.6
2015-Apr-13 19:34N 51°26' E 002°12'1312.7
2015-Apr-13 18:33N 51°14' E 002°04'1212.0
2015-Apr-13 17:33N 51°08' E 001°48'1212.1
2015-Apr-13 16:33N 50°59' E 001°35'1610.8
2015-Apr-13 15:03N 50°44' E 001°24'26311.2
2015-Apr-12 15:33N 49°03' W 004°52'2110.6
2015-Apr-12 13:33N 48°52' W 005°19'1110.8
2015-Apr-12 12:33N 48°46' W 005°34'2211.0
2015-Apr-12 10:33N 48°28' W 005°51'1211.6
2015-Apr-12 09:33N 48°17' W 005°59'1211.8
2015-Apr-12 08:33N 48°07' W 006°07'1212.0
2015-Apr-12 07:33N 47°56' W 006°16'2412.0
2015-Apr-12 05:33N 47°35' W 006°33'  
Track history (hours):
 
Tides and Currents Weather Stations Pressure Air Temp Water Temp Dewpoint Dewpoint Depression Visibility Wind Speed Wind Dir Waves Ship Positions

Kathy C

Last reported at 2015-Apr-21 02:33 UTC. Time now 2015-Apr-21 03:00 UTC.
Position N 54°01' E 007°35'.

Length 106 m; draft 6 m.

Type: Cargo ship. MMSI: 235075591.

Date/timePositionNaut miles runAvg speedWind from/ knotsBaromVisibWave heightAir tempDewpointWater temp
2015-Apr-21 02:33N 54°01' E 007°35'1111.4
2015-Apr-21 01:33N 54°01' E 007°54'1111.0
2015-Apr-21 00:33N 54°00' E 008°13'9 9.5
2015-Apr-20 23:34N 53°59' E 008°28'8 8.0
2015-Apr-20 22:34N 53°55' E 008°41'9 9.2
2015-Apr-20 21:34N 53°51' E 008°54'9 9.0
2015-Apr-20 20:33N 53°54' E 009°09'1 0.8
2015-Apr-20 19:33N 53°54' E 009°10'1 0.9
2015-Apr-20 18:31N 53°55' E 009°11'0 0.0
2015-Apr-20 17:33N 53°55' E 009°11'4 3.9
2015-Apr-20 16:33N 53°58' E 009°15'9 8.5
2015-Apr-20 15:33N 54°06' E 009°20'18 7.8
2015-Apr-20 13:17N 54°18' E 009°42'2 3.2
2015-Apr-20 12:33N 54°20' E 009°44'8 7.6
2015-Apr-20 11:33N 54°20' E 009°57'6 5.7
2015-Apr-20 10:33N 54°22' E 010°06'1 1.5
2015-Apr-20 09:33N 54°22' E 010°09'1 0.7
2015-Apr-20 08:33N 54°22' E 010°10'1 0.7
2015-Apr-20 07:33N 54°22' E 010°10'6 5.8
2015-Apr-20 06:33N 54°27' E 010°14'6 5.7
2015-Apr-20 05:33N 54°31' E 010°22'9 9.0
2015-Apr-20 04:33N 54°35' E 010°36'1211.6
2015-Apr-20 03:31N 54°36' E 010°57'1111.5
2015-Apr-20 02:31N 54°35' E 011°16'1111.8
2015-Apr-20 01:33N 54°30' E 011°34'1211.7
2015-Apr-20 00:33N 54°27' E 011°54'1110.6
2015-Apr-19 23:33N 54°30' E 012°11'1111.1
2015-Apr-19 22:33N 54°39' E 012°21'1211.8
2015-Apr-19 21:33N 54°46' E 012°38'1411.2
2015-Apr-19 20:18N 54°47' E 013°03'811.4
2015-Apr-19 19:33N 54°47' E 013°17'1111.2
2015-Apr-19 18:33N 54°47' E 013°37'1111.1
2015-Apr-19 17:33N 54°43' E 013°55'1111.1
2015-Apr-19 16:33N 54°40' E 014°13'1111.2
2015-Apr-19 15:33N 54°39' E 014°33'1611.5
2015-Apr-19 14:09N 54°41' E 015°00'811.8
2015-Apr-19 13:26N 54°42' E 015°15'10411.6
2015-Apr-19 04:28N 54°57' E 018°13'1011.4
2015-Apr-19 03:33N 54°57' E 018°31'1010.5
2015-Apr-19 02:33N 54°52' E 018°48'1110.5
2015-Apr-19 01:33N 54°44' E 018°60'1111.2
2015-Apr-19 00:33N 54°34' E 018°52'1010.0
2015-Apr-18 23:33N 54°32' E 018°35'1 1.4
2015-Apr-18 22:31N 54°32' E 018°33'0 0.0
2015-Apr-18 21:31N 54°32' E 018°33'0 0.0
2015-Apr-18 20:31N 54°32' E 018°33'0 0.0
2015-Apr-18 19:31N 54°32' E 018°33'0 0.0
2015-Apr-18 18:31N 54°32' E 018°33'0 0.0
2015-Apr-18 17:31N 54°32' E 018°33'0 0.0
2015-Apr-18 16:31N 54°32' E 018°33'0 0.0
2015-Apr-18 15:31N 54°32' E 018°33'0 0.0
2015-Apr-18 14:31N 54°32' E 018°33'0 0.0
2015-Apr-18 13:31N 54°32' E 018°33'0 0.0
2015-Apr-18 12:31N 54°32' E 018°33'0 0.0
2015-Apr-18 11:31N 54°32' E 018°33'0 0.0
2015-Apr-18 10:31N 54°32' E 018°33'0 0.0
2015-Apr-18 09:31N 54°32' E 018°33'0 0.0
2015-Apr-18 08:31N 54°32' E 018°33'0 0.0
2015-Apr-18 07:31N 54°32' E 018°33'0 0.0
2015-Apr-18 06:31N 54°32' E 018°33'0 0.0
2015-Apr-18 05:31N 54°32' E 018°33'0 0.0
2015-Apr-18 04:31N 54°32' E 018°33'0 0.0
2015-Apr-18 03:31N 54°32' E 018°33'0 0.0
2015-Apr-18 02:31N 54°32' E 018°33'0 0.0
2015-Apr-18 01:31N 54°32' E 018°33'0 0.0
2015-Apr-18 00:31N 54°32' E 018°33'0 0.0
2015-Apr-17 23:31N 54°32' E 018°33'0 0.0
2015-Apr-17 22:31N 54°32' E 018°33'0 0.0
2015-Apr-17 21:31N 54°32' E 018°33'0 0.0
2015-Apr-17 20:31N 54°32' E 018°33'5 5.0
2015-Apr-17 19:33N 54°32' E 018°41'1110.8
2015-Apr-17 18:34N 54°39' E 018°55'1110.7
2015-Apr-17 17:34N 54°50' E 018°54'1312.6
2015-Apr-17 16:33N 54°57' E 018°36'1312.5
2015-Apr-17 15:33N 54°57' E 018°14'14812.2
2015-Apr-17 03:21N 54°40' E 013°59'1012.5
2015-Apr-17 02:33N 54°42' E 013°42'1312.8
2015-Apr-17 01:33N 54°44' E 013°20'1312.6
2015-Apr-17 00:32N 54°44' E 012°58'1412.0
2015-Apr-16 23:23N 54°40' E 012°35'1012.5
2015-Apr-16 22:33N 54°35' E 012°19'1212.1
2015-Apr-16 21:33N 54°25' E 012°09'1313.0
2015-Apr-16 20:33N 54°25' E 011°46'1313.0
2015-Apr-16 19:33N 54°30' E 011°26'1313.3
2015-Apr-16 18:33N 54°35' E 011°04'2612.8
2015-Apr-16 16:31N 54°30' E 010°20'1010.6
2015-Apr-16 15:33N 54°22' E 010°09'1 1.1
2015-Apr-16 14:33N 54°22' E 010°08'0 0.0
2015-Apr-16 13:33N 54°22' E 010°08'0 0.3
2015-Apr-16 12:33N 54°22' E 010°07'5 5.2
2015-Apr-16 11:33N 54°21' E 009°59'8 7.7
2015-Apr-16 10:33N 54°21' E 009°45'9 7.4
2015-Apr-16 09:22N 54°14' E 009°36'15 8.0
2015-Apr-16 07:33N 54°03' E 009°19'8 8.3
2015-Apr-16 06:33N 53°56' E 009°13'4 4.4
2015-Apr-16 05:33N 53°53' E 009°07'3 3.0
2015-Apr-16 04:33N 53°52' E 009°02'9 9.3
2015-Apr-16 03:33N 53°50' E 008°47'8 7.8
2015-Apr-16 02:34N 53°57' E 008°39'9 9.3
2015-Apr-16 01:33N 53°59' E 008°23'1410.4
2015-Apr-16 00:12N 53°58' E 007°59'6 9.5
2015-Apr-15 23:34N 53°52' E 007°55'1413.5
2015-Apr-15 22:33N 53°44' E 008°14'1312.7
2015-Apr-15 21:33N 53°36' E 008°30'9 8.9
2015-Apr-15 20:33N 53°27' E 008°30'7 7.1
2015-Apr-15 19:33N 53°20' E 008°30'0 0.0
2015-Apr-15 17:32N 53°20' E 008°30'0 0.0
2015-Apr-15 16:32N 53°20' E 008°30'0 0.0
2015-Apr-15 15:08N 53°20' E 008°30'0 0.0
2015-Apr-15 14:14N 53°20' E 008°30'0 0.0
2015-Apr-15 13:08N 53°20' E 008°30'0 0.0
2015-Apr-15 11:08N 53°20' E 008°30'0 0.0
2015-Apr-15 10:08N 53°20' E 008°30'0 0.0
2015-Apr-15 07:29N 53°20' E 008°30'0 0.0
2015-Apr-15 06:26N 53°20' E 008°30'0 0.0
2015-Apr-15 04:26N 53°20' E 008°30'0 0.0
2015-Apr-15 02:29N 53°20' E 008°30'0 0.0
2015-Apr-15 00:05N 53°20' E 008°30'0 0.0
2015-Apr-14 23:14N 53°20' E 008°30'2 2.9
2015-Apr-14 22:33N 53°22' E 008°30'9 8.8
2015-Apr-14 21:33N 53°31' E 008°32'8 8.3
2015-Apr-14 20:33N 53°38' E 008°26'1111.1
2015-Apr-14 19:33N 53°45' E 008°11'1111.1
2015-Apr-14 18:33N 53°51' E 007°55'1111.0
2015-Apr-14 17:33N 53°54' E 007°37'1212.3
2015-Apr-14 16:32N 53°52' E 007°16'5012.6
2015-Apr-14 12:33N 53°40' E 005°53'1212.2
2015-Apr-14 11:33N 53°36' E 005°34'1211.8
2015-Apr-14 10:33N 53°32' E 005°15'1111.3
2015-Apr-14 09:33N 53°28' E 004°57'2410.2
2015-Apr-14 07:13N 53°10' E 004°32'12211.4
2015-Apr-13 20:33N 51°36' E 002°24'1312.6
2015-Apr-13 19:34N 51°26' E 002°12'1312.7
2015-Apr-13 18:33N 51°14' E 002°04'1212.0
2015-Apr-13 17:33N 51°08' E 001°48'1212.1
2015-Apr-13 16:33N 50°59' E 001°35'1610.8
2015-Apr-13 15:03N 50°44' E 001°24'26311.2
2015-Apr-12 15:33N 49°03' W 004°52'2110.6
2015-Apr-12 13:33N 48°52' W 005°19'1110.8
2015-Apr-12 12:33N 48°46' W 005°34'2211.0
2015-Apr-12 10:33N 48°28' W 005°51'1211.6
2015-Apr-12 09:33N 48°17' W 005°59'1211.8
2015-Apr-12 08:33N 48°07' W 006°07'1212.0
2015-Apr-12 07:33N 47°56' W 006°16'2412.0
2015-Apr-12 05:33N 47°35' W 006°33'  

Dump ship's entire track history